Frame Switch, Texas
Current Conditions -  °F | °C
As of 9:58 AM on Thursday 30 Oct 2014 (Local Time) from KGRK Reporting Station
Scattered Clouds Scattered Clouds  
Wind Chill: 64°   Ceiling: Unl
Heat Index: 64°   Visibility: 10mi
Dew Point: 57°   Wind: 9mph
Humidity: 77%   Direction: 150°SSE
Pressure: 30.17"   Gusts: NA
Location:  30.5793°N, 97.5096°W
Report Text: KGRK 301458Z AUTO 15008KT 10SM SCT035 SCT050 18/14 A3017 RMK AO2 CIG 035 RWY33 SLP211 T01790138 52016
Loading
Personal Weather Stations






























Interactive Weather Map
Tropical Storm Tracking
New forecast layout! Learn more

10-Day Weather Forecast

Advertisements
Track Severe Weather on mobile